Genoa Cristoforo Colombo Airport

LIMJ · 利古里亞, 意大利

罗盘
风向 的 风向 030° Genoa Cristoforo Colombo Airport 10/28
风: 11 kt, 4 beaufort

3 kt

11 kt
改变
0 ft 1.000 2.000 3.000 4.000 5.000
Cloud Cloud Cloud Cloud
SCT 2.000
Cloud Cloud Cloud Cloud Cloud Cloud Cloud Cloud
OVC 5.000
METAR LIMJ 262350Z 03011KT 9999 -RA SCT020 OVC050 08/04 Q1003

METAR Genoa Cristoforo Colombo Airport - LIMJ/GOA

Genoa Cristoforo Colombo Airport是,意大利中的中型机场。 该机场位于纬度44,41195和经度8,84189。 该机场有一条跑道: 10/28. 本场的ICAO机场代码为LIMJ。 该机场的IATA代码为GOA。 机场在Milano FIR中。

该航空气象观测是针对Genoa Cristoforo Colombo Airport在2024年2月27日 00:50, 当地时间进行的。

机场观察

风向为030°,速度为11 kt。

可见度为10 km 或者更多。

有疏云,零星散落的云朵在2.000 ft的高度 和 乌云密布在5.000 ft的高度。 破损或更高的上限为5.000 ft。

当前天气为光 雨。 温度为8 °C,阵风为3 °C。 露点为4 °C,相对湿度为76%。 海平面上的气压为1003 hPa (QNH)。

白天

今天,太阳从07:05升起,在18:08降落。 这适用于Genoa Cristoforo Colombo Airport,世界夏令时可能有所不同。 当地时间与世界标准时间之间的时差为+1 小时。 当前,没有夏令时有效。

公司介绍

在这个机场,你可以找到飞行学校。 本场上唯一已知的公司是Aeroclub di Genova。

体会

到Vliegles.nl去找飞行课程,跳伞和其他飞行体验。 浏览页面,了解Genoa Cristoforo Colombo Airport附近所有可用的活动。 你也可以使用搜索功能来寻找你所在地附近的特定飞行课程、跳伞或其他飞行体验。

跑道

Id 标题 侧风 逆风 侧风 %
10/28 104°-284° 11 kt 3 kt 96 %

逆风成分最大的方向会被突出显示,并用于横风计算。 这并不一定意味着这个方向在使用。

乌云

2.000 ft SCT 疏云,零星散落的云朵
5.000 ft OVC 乌云密布

温度 & 天气

天气 光 雨
温度 8 °C
露点 4 °C
相对湿度 76%
风寒 3 °C
Kp-index 1 (0-9)

白天

日出
07:07 (5:46)
中午
12:37
日落
18:07

小工具

你想在你的网站上有一个关于Genoa Cristoforo Colombo Airport的当前航空天气(METAR)的小部件吗?

显示HTML代码
?>